sensor_id;sensor_type;location;lat;lon;timestamp;P1;durP1;ratioP1;P2;durP2;ratioP2
68192;SDS011;55012;47.562;18.414;2022-07-30T00:02:01;6.07;;;5.18;;
68192;SDS011;55012;47.562;18.414;2022-07-30T00:04:26;8.95;;;5.30;;
68192;SDS011;55012;47.562;18.414;2022-07-30T00:06:52;5.70;;;5.00;;
68192;SDS011;55012;47.562;18.414;2022-07-30T00:09:17;7.93;;;5.30;;
68192;SDS011;55012;47.562;18.414;2022-07-30T00:11:43;6.88;;;5.40;;
68192;SDS011;55012;47.562;18.414;2022-07-30T00:14:08;7.80;;;5.28;;
68192;SDS011;55012;47.562;18.414;2022-07-30T00:16:34;7.20;;;5.20;;
68192;SDS011;55012;47.562;18.414;2022-07-30T00:19:00;10.05;;;5.10;;
68192;SDS011;55012;47.562;18.414;2022-07-30T00:21:26;7.28;;;5.60;;
68192;SDS011;55012;47.562;18.414;2022-07-30T00:23:52;7.20;;;5.63;;
68192;SDS011;55012;47.562;18.414;2022-07-30T00:26:18;10.45;;;5.07;;
68192;SDS011;55012;47.562;18.414;2022-07-30T00:28:43;5.88;;;5.20;;
68192;SDS011;55012;47.562;18.414;2022-07-30T00:31:08;8.00;;;5.78;;
68192;SDS011;55012;47.562;18.414;2022-07-30T00:33:34;7.93;;;5.53;;
68192;SDS011;55012;47.562;18.414;2022-07-30T00:35:59;7.30;;;5.30;;
68192;SDS011;55012;47.562;18.414;2022-07-30T00:38:25;6.40;;;5.32;;
68192;SDS011;55012;47.562;18.414;2022-07-30T00:40:50;10.10;;;5.97;;
68192;SDS011;55012;47.562;18.414;2022-07-30T00:43:16;9.00;;;5.28;;
68192;SDS011;55012;47.562;18.414;2022-07-30T00:45:46;6.60;;;5.13;;
68192;SDS011;55012;47.562;18.414;2022-07-30T00:48:12;7.05;;;5.45;;
68192;SDS011;55012;47.562;18.414;2022-07-30T00:50:38;7.53;;;5.55;;
68192;SDS011;55012;47.562;18.414;2022-07-30T00:53:04;7.15;;;5.60;;
68192;SDS011;55012;47.562;18.414;2022-07-30T00:55:31;8.45;;;6.18;;
68192;SDS011;55012;47.562;18.414;2022-07-30T00:57:57;7.35;;;5.93;;
68192;SDS011;55012;47.562;18.414;2022-07-30T01:00:22;11.75;;;6.70;;
68192;SDS011;55012;47.562;18.414;2022-07-30T01:02:48;9.18;;;6.20;;
68192;SDS011;55012;47.562;18.414;2022-07-30T01:05:14;7.95;;;5.85;;
68192;SDS011;55012;47.562;18.414;2022-07-30T01:07:40;11.25;;;6.03;;
68192;SDS011;55012;47.562;18.414;2022-07-30T01:10:07;6.95;;;5.78;;
68192;SDS011;55012;47.562;18.414;2022-07-30T01:12:34;8.38;;;6.40;;
68192;SDS011;55012;47.562;18.414;2022-07-30T01:15:02;10.63;;;6.35;;
68192;SDS011;55012;47.562;18.414;2022-07-30T01:17:29;10.68;;;6.35;;
68192;SDS011;55012;47.562;18.414;2022-07-30T01:19:55;8.38;;;5.93;;
68192;SDS011;55012;47.562;18.414;2022-07-30T01:27:46;9.23;;;6.18;;
68192;SDS011;55012;47.562;18.414;2022-07-30T01:30:16;10.52;;;5.82;;
68192;SDS011;55012;47.562;18.414;2022-07-30T01:32:44;8.38;;;6.25;;
68192;SDS011;55012;47.562;18.414;2022-07-30T01:35:11;10.00;;;6.53;;
68192;SDS011;55012;47.562;18.414;2022-07-30T01:37:39;9.90;;;6.22;;
68192;SDS011;55012;47.562;18.414;2022-07-30T01:40:08;9.68;;;6.30;;
68192;SDS011;55012;47.562;18.414;2022-07-30T01:42:35;12.02;;;6.20;;
68192;SDS011;55012;47.562;18.414;2022-07-30T01:45:02;11.75;;;5.90;;
68192;SDS011;55012;47.562;18.414;2022-07-30T01:47:29;7.97;;;5.50;;
68192;SDS011;55012;47.562;18.414;2022-07-30T01:49:58;7.50;;;5.85;;
68192;SDS011;55012;47.562;18.414;2022-07-30T01:52:25;12.70;;;6.20;;
68192;SDS011;55012;47.562;18.414;2022-07-30T01:54:55;8.73;;;5.82;;
68192;SDS011;55012;47.562;18.414;2022-07-30T01:57:22;11.07;;;6.25;;
68192;SDS011;55012;47.562;18.414;2022-07-30T01:59:50;8.77;;;5.82;;
68192;SDS011;55012;47.562;18.414;2022-07-30T02:02:21;7.30;;;5.72;;
68192;SDS011;55012;47.562;18.414;2022-07-30T02:04:46;11.10;;;5.65;;
68192;SDS011;55012;47.562;18.414;2022-07-30T02:10:13;8.98;;;5.70;;
68192;SDS011;55012;47.562;18.414;2022-07-30T02:12:45;6.63;;;5.30;;
68192;SDS011;55012;47.562;18.414;2022-07-30T02:17:59;8.13;;;5.88;;
68192;SDS011;55012;47.562;18.414;2022-07-30T02:20:28;12.95;;;5.82;;
68192;SDS011;55012;47.562;18.414;2022-07-30T02:22:57;9.75;;;5.05;;
68192;SDS011;55012;47.562;18.414;2022-07-30T02:25:27;9.13;;;5.85;;
68192;SDS011;55012;47.562;18.414;2022-07-30T02:27:57;8.52;;;5.80;;
68192;SDS011;55012;47.562;18.414;2022-07-30T02:30:29;6.82;;;5.43;;
68192;SDS011;55012;47.562;18.414;2022-07-30T02:33:06;10.98;;;5.50;;
68192;SDS011;55012;47.562;18.414;2022-07-30T02:35:34;7.00;;;5.60;;
68192;SDS011;55012;47.562;18.414;2022-07-30T02:38:02;8.73;;;5.95;;
68192;SDS011;55012;47.562;18.414;2022-07-30T02:40:28;8.43;;;5.65;;
68192;SDS011;55012;47.562;18.414;2022-07-30T02:42:53;7.95;;;5.70;;
68192;SDS011;55012;47.562;18.414;2022-07-30T02:45:21;7.03;;;5.50;;
68192;SDS011;55012;47.562;18.414;2022-07-30T02:47:50;7.20;;;5.10;;
68192;SDS011;55012;47.562;18.414;2022-07-30T02:50:19;6.28;;;5.25;;
68192;SDS011;55012;47.562;18.414;2022-07-30T02:52:46;7.82;;;6.25;;
68192;SDS011;55012;47.562;18.414;2022-07-30T02:55:13;7.50;;;5.80;;
68192;SDS011;55012;47.562;18.414;2022-07-30T02:57:41;6.97;;;5.57;;
68192;SDS011;55012;47.562;18.414;2022-07-30T03:00:08;7.78;;;5.90;;
68192;SDS011;55012;47.562;18.414;2022-07-30T03:02:35;6.10;;;5.32;;
68192;SDS011;55012;47.562;18.414;2022-07-30T03:05:01;8.18;;;6.00;;
68192;SDS011;55012;47.562;18.414;2022-07-30T03:07:29;7.53;;;5.47;;
68192;SDS011;55012;47.562;18.414;2022-07-30T03:09:56;6.18;;;5.57;;
68192;SDS011;55012;47.562;18.414;2022-07-30T03:12:24;8.38;;;5.78;;
68192;SDS011;55012;47.562;18.414;2022-07-30T03:14:53;8.45;;;5.90;;
68192;SDS011;55012;47.562;18.414;2022-07-30T03:17:20;9.68;;;5.75;;
68192;SDS011;55012;47.562;18.414;2022-07-30T03:19:47;12.05;;;6.47;;
68192;SDS011;55012;47.562;18.414;2022-07-30T03:22:14;6.88;;;5.88;;
68192;SDS011;55012;47.562;18.414;2022-07-30T03:24:43;8.70;;;5.75;;
68192;SDS011;55012;47.562;18.414;2022-07-30T03:27:11;7.43;;;5.88;;
68192;SDS011;55012;47.562;18.414;2022-07-30T03:29:37;7.15;;;5.97;;
68192;SDS011;55012;47.562;18.414;2022-07-30T03:32:04;7.40;;;5.80;;
68192;SDS011;55012;47.562;18.414;2022-07-30T03:34:31;6.80;;;6.05;;
68192;SDS011;55012;47.562;18.414;2022-07-30T03:36:58;8.32;;;6.13;;
68192;SDS011;55012;47.562;18.414;2022-07-30T03:39:25;10.02;;;6.30;;
68192;SDS011;55012;47.562;18.414;2022-07-30T03:41:53;7.82;;;6.60;;
68192;SDS011;55012;47.562;18.414;2022-07-30T03:44:20;9.18;;;6.75;;
68192;SDS011;55012;47.562;18.414;2022-07-30T03:46:47;6.80;;;5.97;;
68192;SDS011;55012;47.562;18.414;2022-07-30T03:49:15;9.10;;;6.38;;
68192;SDS011;55012;47.562;18.414;2022-07-30T03:51:41;7.78;;;6.35;;
68192;SDS011;55012;47.562;18.414;2022-07-30T03:54:07;9.63;;;7.43;;
68192;SDS011;55012;47.562;18.414;2022-07-30T03:56:35;10.10;;;7.75;;
68192;SDS011;55012;47.562;18.414;2022-07-30T03:59:02;8.65;;;6.70;;
68192;SDS011;55012;47.562;18.414;2022-07-30T04:01:28;9.23;;;6.82;;
68192;SDS011;55012;47.562;18.414;2022-07-30T04:03:53;8.15;;;6.95;;
68192;SDS011;55012;47.562;18.414;2022-07-30T04:06:19;7.82;;;6.90;;
68192;SDS011;55012;47.562;18.414;2022-07-30T04:08:45;8.60;;;6.68;;
68192;SDS011;55012;47.562;18.414;2022-07-30T04:11:10;8.85;;;6.90;;
68192;SDS011;55012;47.562;18.414;2022-07-30T04:13:36;10.02;;;7.72;;
68192;SDS011;55012;47.562;18.414;2022-07-30T04:16:04;14.00;;;8.70;;
68192;SDS011;55012;47.562;18.414;2022-07-30T04:18:39;11.93;;;8.65;;
68192;SDS011;55012;47.562;18.414;2022-07-30T04:21:09;11.45;;;8.90;;
68192;SDS011;55012;47.562;18.414;2022-07-30T04:23:39;11.02;;;8.63;;
68192;SDS011;55012;47.562;18.414;2022-07-30T04:26:05;11.75;;;8.70;;
68192;SDS011;55012;47.562;18.414;2022-07-30T04:28:31;11.60;;;8.80;;
68192;SDS011;55012;47.562;18.414;2022-07-30T04:30:58;14.27;;;9.45;;
68192;SDS011;55012;47.562;18.414;2022-07-30T04:33:24;14.77;;;9.98;;
68192;SDS011;55012;47.562;18.414;2022-07-30T04:35:49;13.75;;;9.52;;
68192;SDS011;55012;47.562;18.414;2022-07-30T04:38:15;15.07;;;9.50;;
68192;SDS011;55012;47.562;18.414;2022-07-30T04:40:41;13.73;;;9.98;;
68192;SDS011;55012;47.562;18.414;2022-07-30T04:43:07;15.77;;;10.13;;
68192;SDS011;55012;47.562;18.414;2022-07-30T04:45:32;13.18;;;10.05;;
68192;SDS011;55012;47.562;18.414;2022-07-30T04:47:59;20.77;;;10.27;;
68192;SDS011;55012;47.562;18.414;2022-07-30T04:50:25;12.13;;;9.75;;
68192;SDS011;55012;47.562;18.414;2022-07-30T04:52:53;14.05;;;9.98;;
68192;SDS011;55012;47.562;18.414;2022-07-30T04:55:20;16.58;;;10.18;;
68192;SDS011;55012;47.562;18.414;2022-07-30T04:57:47;11.70;;;9.50;;
68192;SDS011;55012;47.562;18.414;2022-07-30T05:00:15;14.85;;;10.48;;
68192;SDS011;55012;47.562;18.414;2022-07-30T05:02:41;17.00;;;9.90;;
68192;SDS011;55012;47.562;18.414;2022-07-30T05:05:09;18.55;;;10.68;;
68192;SDS011;55012;47.562;18.414;2022-07-30T05:07:36;13.73;;;10.60;;
68192;SDS011;55012;47.562;18.414;2022-07-30T05:10:03;13.48;;;10.10;;
68192;SDS011;55012;47.562;18.414;2022-07-30T05:12:31;13.50;;;11.25;;
68192;SDS011;55012;47.562;18.414;2022-07-30T05:15:06;14.18;;;11.50;;
68192;SDS011;55012;47.562;18.414;2022-07-30T05:17:33;15.10;;;11.98;;
68192;SDS011;55012;47.562;18.414;2022-07-30T05:19:59;20.58;;;13.25;;
68192;SDS011;55012;47.562;18.414;2022-07-30T05:22:25;14.57;;;11.45;;
68192;SDS011;55012;47.562;18.414;2022-07-30T05:24:54;14.98;;;12.52;;
68192;SDS011;55012;47.562;18.414;2022-07-30T05:27:20;16.05;;;12.13;;
68192;SDS011;55012;47.562;18.414;2022-07-30T05:29:45;13.00;;;10.60;;
68192;SDS011;55012;47.562;18.414;2022-07-30T05:32:11;14.40;;;11.55;;
68192;SDS011;55012;47.562;18.414;2022-07-30T05:34:37;11.55;;;7.72;;
68192;SDS011;55012;47.562;18.414;2022-07-30T05:37:02;11.00;;;8.30;;
68192;SDS011;55012;47.562;18.414;2022-07-30T05:39:28;9.90;;;7.50;;
68192;SDS011;55012;47.562;18.414;2022-07-30T05:41:53;10.82;;;8.35;;
68192;SDS011;55012;47.562;18.414;2022-07-30T05:44:19;11.32;;;7.85;;
68192;SDS011;55012;47.562;18.414;2022-07-30T05:46:45;11.70;;;7.70;;
68192;SDS011;55012;47.562;18.414;2022-07-30T05:49:10;10.57;;;8.07;;
68192;SDS011;55012;47.562;18.414;2022-07-30T05:51:36;10.30;;;8.30;;
68192;SDS011;55012;47.562;18.414;2022-07-30T05:54:02;8.65;;;6.78;;
68192;SDS011;55012;47.562;18.414;2022-07-30T05:56:28;7.90;;;7.05;;
68192;SDS011;55012;47.562;18.414;2022-07-30T05:58:53;9.18;;;7.43;;
68192;SDS011;55012;47.562;18.414;2022-07-30T06:01:19;10.48;;;8.07;;
68192;SDS011;55012;47.562;18.414;2022-07-30T06:03:44;9.00;;;7.32;;
68192;SDS011;55012;47.562;18.414;2022-07-30T06:06:10;9.90;;;8.90;;
68192;SDS011;55012;47.562;18.414;2022-07-30T06:08:35;15.95;;;11.15;;
68192;SDS011;55012;47.562;18.414;2022-07-30T06:11:01;11.85;;;10.63;;
68192;SDS011;55012;47.562;18.414;2022-07-30T06:13:27;14.10;;;11.27;;
68192;SDS011;55012;47.562;18.414;2022-07-30T06:15:52;16.08;;;11.45;;
68192;SDS011;55012;47.562;18.414;2022-07-30T06:18:18;12.90;;;10.82;;
68192;SDS011;55012;47.562;18.414;2022-07-30T06:20:44;14.43;;;11.65;;
68192;SDS011;55012;47.562;18.414;2022-07-30T06:23:09;11.43;;;7.72;;
68192;SDS011;55012;47.562;18.414;2022-07-30T06:25:35;9.82;;;7.90;;
68192;SDS011;55012;47.562;18.414;2022-07-30T06:28:00;13.65;;;10.43;;
68192;SDS011;55012;47.562;18.414;2022-07-30T06:30:26;15.52;;;10.75;;
68192;SDS011;55012;47.562;18.414;2022-07-30T06:32:53;9.88;;;7.60;;
68192;SDS011;55012;47.562;18.414;2022-07-30T06:35:19;11.10;;;8.25;;
68192;SDS011;55012;47.562;18.414;2022-07-30T06:37:44;10.05;;;7.88;;
68192;SDS011;55012;47.562;18.414;2022-07-30T06:40:10;8.98;;;7.95;;
68192;SDS011;55012;47.562;18.414;2022-07-30T06:42:36;12.00;;;9.80;;
68192;SDS011;55012;47.562;18.414;2022-07-30T06:45:02;16.35;;;11.52;;
68192;SDS011;55012;47.562;18.414;2022-07-30T06:47:28;14.30;;;9.95;;
68192;SDS011;55012;47.562;18.414;2022-07-30T06:49:56;11.38;;;8.93;;
68192;SDS011;55012;47.562;18.414;2022-07-30T06:52:22;14.40;;;11.82;;
68192;SDS011;55012;47.562;18.414;2022-07-30T06:54:48;10.60;;;8.18;;
68192;SDS011;55012;47.562;18.414;2022-07-30T06:57:14;12.25;;;8.60;;
68192;SDS011;55012;47.562;18.414;2022-07-30T06:59:40;10.48;;;8.05;;
68192;SDS011;55012;47.562;18.414;2022-07-30T07:02:05;10.60;;;7.60;;
68192;SDS011;55012;47.562;18.414;2022-07-30T07:04:31;12.43;;;8.80;;
68192;SDS011;55012;47.562;18.414;2022-07-30T07:06:57;13.55;;;9.25;;
68192;SDS011;55012;47.562;18.414;2022-07-30T07:09:23;13.93;;;10.15;;
68192;SDS011;55012;47.562;18.414;2022-07-30T07:11:49;12.60;;;8.38;;
68192;SDS011;55012;47.562;18.414;2022-07-30T07:14:15;11.90;;;7.90;;
68192;SDS011;55012;47.562;18.414;2022-07-30T07:16:41;12.32;;;8.30;;
68192;SDS011;55012;47.562;18.414;2022-07-30T07:19:06;10.57;;;7.80;;
68192;SDS011;55012;47.562;18.414;2022-07-30T07:21:32;13.25;;;8.70;;
68192;SDS011;55012;47.562;18.414;2022-07-30T07:23:57;9.52;;;7.90;;
68192;SDS011;55012;47.562;18.414;2022-07-30T07:26:27;11.50;;;7.45;;
68192;SDS011;55012;47.562;18.414;2022-07-30T07:28:53;10.20;;;8.60;;
68192;SDS011;55012;47.562;18.414;2022-07-30T07:31:19;13.68;;;9.57;;
68192;SDS011;55012;47.562;18.414;2022-07-30T07:33:45;11.90;;;9.50;;
68192;SDS011;55012;47.562;18.414;2022-07-30T07:36:12;13.15;;;9.40;;
68192;SDS011;55012;47.562;18.414;2022-07-30T07:38:37;12.25;;;8.90;;
68192;SDS011;55012;47.562;18.414;2022-07-30T07:41:03;10.23;;;7.72;;
68192;SDS011;55012;47.562;18.414;2022-07-30T07:43:29;8.50;;;6.88;;
68192;SDS011;55012;47.562;18.414;2022-07-30T07:45:55;10.00;;;7.75;;
68192;SDS011;55012;47.562;18.414;2022-07-30T07:48:20;13.40;;;8.65;;
68192;SDS011;55012;47.562;18.414;2022-07-30T07:50:46;11.30;;;8.50;;
68192;SDS011;55012;47.562;18.414;2022-07-30T07:53:12;9.13;;;7.65;;
68192;SDS011;55012;47.562;18.414;2022-07-30T07:55:37;8.85;;;6.60;;
68192;SDS011;55012;47.562;18.414;2022-07-30T07:58:03;8.25;;;6.80;;
68192;SDS011;55012;47.562;18.414;2022-07-30T08:00:28;9.48;;;8.07;;
68192;SDS011;55012;47.562;18.414;2022-07-30T08:02:54;9.93;;;7.10;;
68192;SDS011;55012;47.562;18.414;2022-07-30T08:05:20;9.30;;;7.22;;
68192;SDS011;55012;47.562;18.414;2022-07-30T08:07:45;9.48;;;8.15;;
68192;SDS011;55012;47.562;18.414;2022-07-30T08:10:11;9.85;;;7.03;;
68192;SDS011;55012;47.562;18.414;2022-07-30T08:12:39;9.77;;;8.07;;
68192;SDS011;55012;47.562;18.414;2022-07-30T08:15:04;8.98;;;7.13;;
68192;SDS011;55012;47.562;18.414;2022-07-30T08:17:30;10.05;;;7.25;;
68192;SDS011;55012;47.562;18.414;2022-07-30T08:19:59;10.02;;;7.88;;
68192;SDS011;55012;47.562;18.414;2022-07-30T08:22:25;10.57;;;7.32;;
68192;SDS011;55012;47.562;18.414;2022-07-30T08:24:51;10.38;;;7.05;;
68192;SDS011;55012;47.562;18.414;2022-07-30T08:27:16;10.07;;;8.68;;
68192;SDS011;55012;47.562;18.414;2022-07-30T08:29:42;16.30;;;9.57;;
68192;SDS011;55012;47.562;18.414;2022-07-30T08:32:08;13.50;;;9.02;;
68192;SDS011;55012;47.562;18.414;2022-07-30T08:34:33;13.13;;;8.98;;
68192;SDS011;55012;47.562;18.414;2022-07-30T08:36:59;11.07;;;9.32;;
68192;SDS011;55012;47.562;18.414;2022-07-30T08:39:24;10.95;;;9.02;;
68192;SDS011;55012;47.562;18.414;2022-07-30T08:41:50;9.02;;;7.53;;
68192;SDS011;55012;47.562;18.414;2022-07-30T08:44:16;10.98;;;8.60;;
68192;SDS011;55012;47.562;18.414;2022-07-30T08:46:43;8.63;;;7.68;;
68192;SDS011;55012;47.562;18.414;2022-07-30T08:49:11;21.23;;;9.43;;
68192;SDS011;55012;47.562;18.414;2022-07-30T08:51:38;31.58;;;12.32;;
68192;SDS011;55012;47.562;18.414;2022-07-30T08:54:04;77.40;;;16.30;;
68192;SDS011;55012;47.562;18.414;2022-07-30T08:56:31;20.60;;;13.88;;
68192;SDS011;55012;47.562;18.414;2022-07-30T08:59:00;24.98;;;15.20;;
68192;SDS011;55012;47.562;18.414;2022-07-30T09:01:27;22.95;;;14.77;;
68192;SDS011;55012;47.562;18.414;2022-07-30T09:03:52;22.85;;;15.45;;
68192;SDS011;55012;47.562;18.414;2022-07-30T09:06:18;19.05;;;13.27;;
68192;SDS011;55012;47.562;18.414;2022-07-30T09:08:43;22.25;;;14.48;;
68192;SDS011;55012;47.562;18.414;2022-07-30T09:11:09;28.13;;;14.73;;
68192;SDS011;55012;47.562;18.414;2022-07-30T09:13:35;24.25;;;15.32;;
68192;SDS011;55012;47.562;18.414;2022-07-30T09:16:02;23.67;;;15.50;;
68192;SDS011;55012;47.562;18.414;2022-07-30T09:18:34;28.67;;;16.70;;
68192;SDS011;55012;47.562;18.414;2022-07-30T09:26:27;25.88;;;15.65;;
68192;SDS011;55012;47.562;18.414;2022-07-30T09:28:54;31.48;;;15.73;;
68192;SDS011;55012;47.562;18.414;2022-07-30T09:31:20;29.90;;;15.95;;
68192;SDS011;55012;47.562;18.414;2022-07-30T09:33:46;25.58;;;15.15;;
68192;SDS011;55012;47.562;18.414;2022-07-30T09:36:14;25.17;;;14.68;;
68192;SDS011;55012;47.562;18.414;2022-07-30T09:41:15;20.08;;;12.90;;
68192;SDS011;55012;47.562;18.414;2022-07-30T09:43:46;19.10;;;11.90;;
68192;SDS011;55012;47.562;18.414;2022-07-30T09:46:13;20.08;;;12.98;;
68192;SDS011;55012;47.562;18.414;2022-07-30T09:48:40;20.90;;;13.27;;
68192;SDS011;55012;47.562;18.414;2022-07-30T09:51:06;19.70;;;12.30;;
68192;SDS011;55012;47.562;18.414;2022-07-30T09:53:32;19.55;;;11.77;;
68192;SDS011;55012;47.562;18.414;2022-07-30T09:55:58;19.23;;;11.68;;
68192;SDS011;55012;47.562;18.414;2022-07-30T09:58:36;18.20;;;11.90;;
68192;SDS011;55012;47.562;18.414;2022-07-30T10:01:04;18.95;;;11.55;;
68192;SDS011;55012;47.562;18.414;2022-07-30T10:03:29;18.65;;;11.75;;
68192;SDS011;55012;47.562;18.414;2022-07-30T10:05:56;24.23;;;13.95;;
68192;SDS011;55012;47.562;18.414;2022-07-30T10:08:37;22.60;;;13.27;;
68192;SDS011;55012;47.562;18.414;2022-07-30T10:11:05;19.33;;;10.55;;
68192;SDS011;55012;47.562;18.414;2022-07-30T10:13:35;16.35;;;10.43;;
68192;SDS011;55012;47.562;18.414;2022-07-30T10:16:02;16.58;;;11.52;;
68192;SDS011;55012;47.562;18.414;2022-07-30T10:18:29;21.77;;;13.23;;
68192;SDS011;55012;47.562;18.414;2022-07-30T10:20:55;20.35;;;12.25;;
68192;SDS011;55012;47.562;18.414;2022-07-30T10:23:21;16.55;;;11.40;;
68192;SDS011;55012;47.562;18.414;2022-07-30T10:25:48;14.40;;;10.13;;
68192;SDS011;55012;47.562;18.414;2022-07-30T10:28:15;17.20;;;11.52;;
68192;SDS011;55012;47.562;18.414;2022-07-30T10:30:42;18.58;;;10.75;;
68192;SDS011;55012;47.562;18.414;2022-07-30T10:33:07;17.85;;;11.43;;
68192;SDS011;55012;47.562;18.414;2022-07-30T10:35:34;14.88;;;10.65;;
68192;SDS011;55012;47.562;18.414;2022-07-30T10:37:59;15.68;;;10.15;;
68192;SDS011;55012;47.562;18.414;2022-07-30T10:40:26;15.60;;;11.00;;
68192;SDS011;55012;47.562;18.414;2022-07-30T10:48:44;17.13;;;11.02;;
68192;SDS011;55012;47.562;18.414;2022-07-30T10:51:10;14.98;;;10.82;;
68192;SDS011;55012;47.562;18.414;2022-07-30T10:53:37;13.93;;;10.30;;
68192;SDS011;55012;47.562;18.414;2022-07-30T10:56:14;14.98;;;10.90;;
68192;SDS011;55012;47.562;18.414;2022-07-30T10:59:04;13.35;;;9.65;;
68192;SDS011;55012;47.562;18.414;2022-07-30T11:04:19;13.02;;;9.05;;
68192;SDS011;55012;47.562;18.414;2022-07-30T11:06:49;11.73;;;9.45;;
68192;SDS011;55012;47.562;18.414;2022-07-30T11:12:11;10.32;;;8.38;;
68192;SDS011;55012;47.562;18.414;2022-07-30T11:14:55;13.50;;;8.45;;
68192;SDS011;55012;47.562;18.414;2022-07-30T11:22:30;7.93;;;6.53;;
68192;SDS011;55012;47.562;18.414;2022-07-30T11:25:03;7.70;;;5.78;;
68192;SDS011;55012;47.562;18.414;2022-07-30T11:27:36;6.32;;;5.45;;
68192;SDS011;55012;47.562;18.414;2022-07-30T11:30:03;5.47;;;4.68;;
68192;SDS011;55012;47.562;18.414;2022-07-30T11:32:32;4.95;;;4.10;;
68192;SDS011;55012;47.562;18.414;2022-07-30T11:40:19;5.47;;;4.47;;
68192;SDS011;55012;47.562;18.414;2022-07-30T11:42:45;6.28;;;4.78;;
68192;SDS011;55012;47.562;18.414;2022-07-30T11:47:42;8.30;;;6.18;;
68192;SDS011;55012;47.562;18.414;2022-07-30T11:50:18;8.27;;;6.70;;
68192;SDS011;55012;47.562;18.414;2022-07-30T11:52:52;7.93;;;6.13;;
68192;SDS011;55012;47.562;18.414;2022-07-30T11:55:23;7.32;;;5.50;;
68192;SDS011;55012;47.562;18.414;2022-07-30T11:57:50;8.38;;;6.30;;
68192;SDS011;55012;47.562;18.414;2022-07-30T12:00:16;7.20;;;5.88;;
68192;SDS011;55012;47.562;18.414;2022-07-30T12:02:42;10.50;;;7.60;;
68192;SDS011;55012;47.562;18.414;2022-07-30T12:05:09;9.00;;;7.00;;
68192;SDS011;55012;47.562;18.414;2022-07-30T12:07:35;7.88;;;6.40;;
68192;SDS011;55012;47.562;18.414;2022-07-30T12:10:14;8.57;;;5.78;;
68192;SDS011;55012;47.562;18.414;2022-07-30T12:12:40;8.45;;;6.38;;
68192;SDS011;55012;47.562;18.414;2022-07-30T12:15:06;5.75;;;4.72;;
68192;SDS011;55012;47.562;18.414;2022-07-30T12:20:17;10.52;;;6.43;;
68192;SDS011;55012;47.562;18.414;2022-07-30T12:22:44;7.65;;;5.70;;
68192;SDS011;55012;47.562;18.414;2022-07-30T12:25:10;7.25;;;5.40;;
68192;SDS011;55012;47.562;18.414;2022-07-30T12:27:36;8.00;;;6.40;;
68192;SDS011;55012;47.562;18.414;2022-07-30T12:30:06;16.35;;;7.35;;
68192;SDS011;55012;47.562;18.414;2022-07-30T12:32:33;11.10;;;7.65;;
68192;SDS011;55012;47.562;18.414;2022-07-30T12:34:59;11.13;;;8.38;;
68192;SDS011;55012;47.562;18.414;2022-07-30T12:37:24;13.52;;;9.23;;
68192;SDS011;55012;47.562;18.414;2022-07-30T12:42:53;18.80;;;11.10;;
68192;SDS011;55012;47.562;18.414;2022-07-30T12:45:25;18.27;;;11.45;;
68192;SDS011;55012;47.562;18.414;2022-07-30T12:47:55;21.25;;;13.73;;
68192;SDS011;55012;47.562;18.414;2022-07-30T12:50:24;15.75;;;11.10;;
68192;SDS011;55012;47.562;18.414;2022-07-30T12:52:51;16.40;;;11.80;;
68192;SDS011;55012;47.562;18.414;2022-07-30T12:55:18;16.52;;;11.02;;
68192;SDS011;55012;47.562;18.414;2022-07-30T12:57:54;14.07;;;10.63;;
68192;SDS011;55012;47.562;18.414;2022-07-30T13:00:24;12.80;;;10.60;;
68192;SDS011;55012;47.562;18.414;2022-07-30T13:02:52;11.80;;;9.57;;
68192;SDS011;55012;47.562;18.414;2022-07-30T13:05:18;11.70;;;8.95;;
68192;SDS011;55012;47.562;18.414;2022-07-30T13:07:57;11.68;;;8.88;;
68192;SDS011;55012;47.562;18.414;2022-07-30T13:10:24;10.68;;;8.90;;
68192;SDS011;55012;47.562;18.414;2022-07-30T13:12:50;12.07;;;9.45;;
68192;SDS011;55012;47.562;18.414;2022-07-30T13:15:19;10.98;;;8.90;;
68192;SDS011;55012;47.562;18.414;2022-07-30T13:17:45;10.13;;;8.82;;
68192;SDS011;55012;47.562;18.414;2022-07-30T13:20:12;11.23;;;8.95;;
68192;SDS011;55012;47.562;18.414;2022-07-30T13:22:40;9.63;;;8.30;;
68192;SDS011;55012;47.562;18.414;2022-07-30T13:25:06;8.27;;;7.38;;
68192;SDS011;55012;47.562;18.414;2022-07-30T13:27:32;9.02;;;7.10;;
68192;SDS011;55012;47.562;18.414;2022-07-30T13:29:58;6.88;;;6.18;;
68192;SDS011;55012;47.562;18.414;2022-07-30T13:32:23;7.45;;;6.65;;
68192;SDS011;55012;47.562;18.414;2022-07-30T13:34:49;7.63;;;6.47;;
68192;SDS011;55012;47.562;18.414;2022-07-30T13:37:14;7.85;;;6.53;;
68192;SDS011;55012;47.562;18.414;2022-07-30T13:39:40;8.07;;;6.75;;
68192;SDS011;55012;47.562;18.414;2022-07-30T13:42:05;7.13;;;6.43;;
68192;SDS011;55012;47.562;18.414;2022-07-30T13:44:31;6.10;;;5.45;;
68192;SDS011;55012;47.562;18.414;2022-07-30T13:46:56;6.13;;;5.40;;
68192;SDS011;55012;47.562;18.414;2022-07-30T13:49:23;6.22;;;5.60;;
68192;SDS011;55012;47.562;18.414;2022-07-30T13:51:49;7.57;;;5.30;;
68192;SDS011;55012;47.562;18.414;2022-07-30T13:54:14;6.85;;;5.25;;
68192;SDS011;55012;47.562;18.414;2022-07-30T13:56:40;5.55;;;5.05;;
68192;SDS011;55012;47.562;18.414;2022-07-30T13:59:06;5.47;;;4.82;;
68192;SDS011;55012;47.562;18.414;2022-07-30T14:01:31;6.03;;;5.43;;
68192;SDS011;55012;47.562;18.414;2022-07-30T14:03:59;5.78;;;5.18;;
68192;SDS011;55012;47.562;18.414;2022-07-30T14:06:24;6.07;;;4.57;;
68192;SDS011;55012;47.562;18.414;2022-07-30T14:08:49;5.10;;;4.60;;
68192;SDS011;55012;47.562;18.414;2022-07-30T14:11:15;5.68;;;4.88;;
68192;SDS011;55012;47.562;18.414;2022-07-30T14:13:41;4.57;;;4.10;;
68192;SDS011;55012;47.562;18.414;2022-07-30T14:16:07;4.50;;;3.78;;
68192;SDS011;55012;47.562;18.414;2022-07-30T14:18:33;4.13;;;3.72;;
68192;SDS011;55012;47.562;18.414;2022-07-30T14:20:59;4.05;;;3.63;;
68192;SDS011;55012;47.562;18.414;2022-07-30T14:23:24;3.28;;;2.97;;
68192;SDS011;55012;47.562;18.414;2022-07-30T14:25:51;3.60;;;3.30;;
68192;SDS011;55012;47.562;18.414;2022-07-30T14:28:16;3.78;;;3.25;;
68192;SDS011;55012;47.562;18.414;2022-07-30T14:30:42;3.75;;;3.45;;
68192;SDS011;55012;47.562;18.414;2022-07-30T14:33:08;4.07;;;3.67;;
68192;SDS011;55012;47.562;18.414;2022-07-30T14:35:33;3.67;;;3.35;;
68192;SDS011;55012;47.562;18.414;2022-07-30T14:37:59;3.92;;;3.63;;
68192;SDS011;55012;47.562;18.414;2022-07-30T14:40:26;4.20;;;3.67;;
68192;SDS011;55012;47.562;18.414;2022-07-30T14:42:51;4.68;;;3.50;;
68192;SDS011;55012;47.562;18.414;2022-07-30T14:45:17;4.55;;;3.80;;
68192;SDS011;55012;47.562;18.414;2022-07-30T14:47:42;3.70;;;3.40;;
68192;SDS011;55012;47.562;18.414;2022-07-30T14:50:08;3.10;;;2.80;;
68192;SDS011;55012;47.562;18.414;2022-07-30T14:52:34;4.70;;;3.10;;
68192;SDS011;55012;47.562;18.414;2022-07-30T14:55:06;3.15;;;2.85;;
68192;SDS011;55012;47.562;18.414;2022-07-30T14:57:33;3.10;;;2.78;;
68192;SDS011;55012;47.562;18.414;2022-07-30T14:59:58;3.33;;;3.03;;
68192;SDS011;55012;47.562;18.414;2022-07-30T15:02:25;3.10;;;2.75;;
68192;SDS011;55012;47.562;18.414;2022-07-30T15:04:50;3.30;;;3.00;;
68192;SDS011;55012;47.562;18.414;2022-07-30T15:07:16;2.63;;;2.42;;
68192;SDS011;55012;47.562;18.414;2022-07-30T15:09:41;3.85;;;2.70;;
68192;SDS011;55012;47.562;18.414;2022-07-30T15:12:07;2.88;;;2.67;;
68192;SDS011;55012;47.562;18.414;2022-07-30T15:14:34;2.70;;;2.50;;